createdAt,value
2023-08-12T00:00:44.800Z,246.00
2023-08-12T00:01:48.052Z,246.00
2023-08-12T00:02:50.291Z,245.50
2023-08-12T00:03:53.825Z,244.33
2023-08-12T00:04:56.229Z,242.83
2023-08-12T00:06:01.640Z,241.17
2023-08-12T00:07:03.997Z,240.00
2023-08-12T00:08:07.476Z,239.00
2023-08-12T00:09:10.123Z,238.00
2023-08-12T00:10:14.316Z,236.83
2023-08-12T00:11:16.530Z,233.33
2023-08-12T00:12:19.694Z,227.50
2023-08-12T00:13:23.248Z,223.17
2023-08-12T00:14:26.493Z,222.00
2023-08-12T00:15:28.772Z,222.00
2023-08-12T00:16:32.053Z,222.00
2023-08-12T00:17:34.309Z,222.00
2023-08-12T00:18:38.100Z,222.50
2023-08-12T00:19:41.320Z,223.00
2023-08-12T00:20:43.509Z,223.00
2023-08-12T00:21:46.679Z,223.33
2023-08-12T00:22:48.849Z,224.00
2023-08-12T00:23:51.148Z,223.33
2023-08-12T00:24:54.427Z,223.00
2023-08-12T00:25:59.419Z,223.00
2023-08-12T00:27:02.672Z,223.50
2023-08-12T00:28:05.648Z,224.17
2023-08-12T00:29:10.072Z,225.50
2023-08-12T00:30:12.695Z,226.67
2023-08-12T00:31:15.969Z,227.33
2023-08-12T00:32:18.116Z,228.00
2023-08-12T00:33:21.244Z,227.00
2023-08-12T00:34:23.360Z,225.50
2023-08-12T00:35:26.493Z,224.00
2023-08-12T00:36:28.880Z,224.83
2023-08-12T00:37:32.135Z,225.00
2023-08-12T00:38:34.295Z,225.00
2023-08-12T00:39:37.629Z,224.17
2023-08-12T00:40:39.972Z,224.00
2023-08-12T00:41:43.248Z,224.50
2023-08-12T00:42:45.414Z,225.00
2023-08-12T00:43:48.676Z,225.00
2023-08-12T00:44:52.154Z,225.17
2023-08-12T00:45:55.544Z,226.33
2023-08-12T00:46:57.948Z,227.00
2023-08-12T00:48:01.247Z,228.00
2023-08-12T00:49:03.762Z,228.00
2023-08-12T00:50:08.032Z,228.00
2023-08-12T00:51:10.794Z,228.00
2023-08-12T00:52:14.498Z,228.67
2023-08-12T00:53:17.580Z,229.00
2023-08-12T00:54:23.207Z,229.00
2023-08-12T00:55:25.447Z,229.00
2023-08-12T00:56:28.911Z,228.33
2023-08-12T00:57:31.343Z,228.00
2023-08-12T00:58:34.560Z,227.67
2023-08-12T00:59:37.708Z,227.00
2023-08-12T01:00:41.914Z,226.33
2023-08-12T01:01:45.339Z,226.00
2023-08-12T01:02:49.758Z,225.00
2023-08-12T01:03:54.144Z,223.67
2023-08-12T01:04:57.152Z,222.33
2023-08-12T01:06:00.968Z,221.17
2023-08-12T01:07:04.665Z,220.17
2023-08-12T01:08:07.890Z,220.00
2023-08-12T01:09:10.673Z,219.17
2023-08-12T01:10:16.506Z,219.00
2023-08-12T01:11:27.149Z,219.00
2023-08-12T01:12:36.410Z,219.00
2023-08-12T01:13:48.258Z,219.00
2023-08-12T01:14:58.655Z,218.67
2023-08-12T01:16:06.682Z,217.50
2023-08-12T01:17:11.932Z,217.00
2023-08-12T01:18:15.719Z,217.00
2023-08-12T01:19:25.583Z,217.00
2023-08-12T01:20:31.619Z,217.67
2023-08-12T01:21:35.025Z,217.83
2023-08-12T01:22:40.598Z,217.00
2023-08-12T01:23:44.297Z,216.17
2023-08-12T01:24:47.568Z,216.00
2023-08-12T01:25:49.821Z,216.00
2023-08-12T01:26:52.992Z,216.00
2023-08-12T01:27:57.626Z,215.83
2023-08-12T01:29:00.910Z,215.00
2023-08-12T01:30:04.615Z,215.00
2023-08-12T01:31:13.510Z,215.00
2023-08-12T01:32:24.517Z,215.00
2023-08-12T01:33:34.037Z,215.00
2023-08-12T01:34:42.444Z,215.00
2023-08-12T01:35:49.683Z,215.00
2023-08-12T01:36:56.469Z,215.00
2023-08-12T01:38:02.079Z,214.33
2023-08-12T01:39:07.103Z,214.00
2023-08-12T01:40:12.100Z,214.00
2023-08-12T01:41:15.358Z,213.50
2023-08-12T01:42:19.390Z,213.00
2023-08-12T01:43:21.857Z,212.17
2023-08-12T01:44:25.127Z,211.33
2023-08-12T01:45:27.512Z,210.83
2023-08-12T01:46:30.712Z,210.00
2023-08-12T01:47:33.468Z,209.67
2023-08-12T01:48:36.649Z,209.00
2023-08-12T01:49:38.872Z,208.00
2023-08-12T01:50:47.908Z,207.67
2023-08-12T01:51:50.103Z,206.67
2023-08-12T01:52:53.276Z,205.67
2023-08-12T01:53:55.460Z,204.67
2023-08-12T01:55:00.001Z,203.83
2023-08-12T01:56:02.154Z,203.00
2023-08-12T01:57:06.881Z,202.17
2023-08-12T01:58:09.120Z,201.17
2023-08-12T01:59:12.312Z,200.50
2023-08-12T02:00:14.738Z,200.00
2023-08-12T02:01:17.989Z,199.00
2023-08-12T02:02:20.219Z,199.00
2023-08-12T02:03:23.468Z,199.00
2023-08-12T02:04:26.946Z,199.00
2023-08-12T02:05:30.152Z,198.83
2023-08-12T02:06:32.292Z,198.00
2023-08-12T02:07:34.447Z,197.17
2023-08-12T02:08:37.663Z,196.00
2023-08-12T02:09:39.826Z,195.50
2023-08-12T02:10:44.377Z,195.00
2023-08-12T02:11:46.536Z,195.00
2023-08-12T02:12:49.719Z,194.17
2023-08-12T02:13:51.907Z,193.83
2023-08-12T02:14:55.132Z,193.00
2023-08-12T02:15:57.353Z,192.50
2023-08-12T02:17:00.595Z,191.50
2023-08-12T02:18:03.117Z,190.33
2023-08-12T02:19:06.546Z,189.50
2023-08-12T02:20:09.270Z,189.00
2023-08-12T02:21:12.889Z,189.00
2023-08-12T02:22:15.234Z,188.00
2023-08-12T02:23:18.409Z,188.00
2023-08-12T02:24:20.618Z,188.00
2023-08-12T02:25:23.765Z,188.00
2023-08-12T02:26:27.366Z,188.00
2023-08-12T02:27:30.579Z,188.00
2023-08-12T02:28:32.849Z,188.67
2023-08-12T02:29:35.988Z,189.00
2023-08-12T02:30:38.182Z,189.00
2023-08-12T02:31:41.407Z,189.00
2023-08-12T02:32:44.864Z,189.00
2023-08-12T02:33:48.101Z,189.00
2023-08-12T02:34:50.342Z,189.00
2023-08-12T02:35:55.559Z,188.50
2023-08-12T02:36:57.729Z,187.67
2023-08-12T02:38:00.995Z,187.00
2023-08-12T02:39:03.354Z,187.00
2023-08-12T02:40:07.706Z,187.00
2023-08-12T02:41:09.924Z,187.00
2023-08-12T02:42:14.428Z,186.83
2023-08-12T02:43:16.741Z,186.00
2023-08-12T02:44:19.864Z,185.33
2023-08-12T02:45:22.017Z,183.50
2023-08-12T02:46:26.522Z,181.67
2023-08-12T02:47:28.767Z,180.50
2023-08-12T02:48:32.114Z,179.67
2023-08-12T02:49:34.275Z,178.50
2023-08-12T02:50:37.455Z,177.17
2023-08-12T02:51:39.579Z,175.67
2023-08-12T02:52:42.749Z,174.50
2023-08-12T02:53:44.992Z,173.33
2023-08-12T02:54:47.168Z,172.50
2023-08-12T02:55:50.325Z,171.33
2023-08-12T02:56:52.494Z,169.50
2023-08-12T02:57:57.252Z,167.33
2023-08-12T02:58:59.578Z,165.00
2023-08-12T03:00:02.755Z,161.67
2023-08-12T03:01:05.423Z,158.33
2023-08-12T03:02:08.681Z,157.00
2023-08-12T03:03:11.014Z,157.00
2023-08-12T03:04:14.405Z,157.83
2023-08-12T03:05:16.856Z,158.50
2023-08-12T03:06:20.030Z,158.83
2023-08-12T03:07:22.171Z,158.00
2023-08-12T03:08:25.863Z,158.83
2023-08-12T03:09:28.031Z,159.00
2023-08-12T03:10:31.142Z,159.00
2023-08-12T03:11:33.337Z,159.00
2023-08-12T03:12:37.190Z,159.17
2023-08-12T03:13:40.745Z,160.00
2023-08-12T03:14:43.893Z,160.00
2023-08-12T03:15:46.052Z,160.00
2023-08-12T03:16:49.139Z,160.00
2023-08-12T03:17:51.417Z,160.00
2023-08-12T03:18:54.518Z,160.00
2023-08-12T03:19:58.228Z,160.83
2023-08-12T03:21:01.351Z,161.00
2023-08-12T03:22:03.936Z,162.00
2023-08-12T03:23:07.074Z,162.83
2023-08-12T03:24:09.218Z,163.17
2023-08-12T03:25:12.539Z,164.00
2023-08-12T03:26:15.478Z,164.00
2023-08-12T03:27:18.589Z,164.33
2023-08-12T03:28:20.752Z,165.00
2023-08-12T03:29:25.284Z,165.00
2023-08-12T03:30:27.522Z,165.00
2023-08-12T03:31:30.624Z,165.17
2023-08-12T03:32:32.849Z,166.00
2023-08-12T03:33:36.039Z,166.00
2023-08-12T03:34:38.132Z,166.00
2023-08-12T03:35:41.400Z,167.00
2023-08-12T03:36:43.706Z,167.00
2023-08-12T03:37:46.805Z,168.00
2023-08-12T03:38:48.972Z,168.33
2023-08-12T03:39:52.134Z,169.00
2023-08-12T03:40:54.300Z,169.67
2023-08-12T03:41:57.415Z,170.00
2023-08-12T03:42:59.819Z,170.67
2023-08-12T03:44:02.975Z,171.00
2023-08-12T03:45:08.172Z,171.00
2023-08-12T03:46:11.368Z,171.00
2023-08-12T03:47:13.824Z,171.00
2023-08-12T03:48:17.208Z,171.00
2023-08-12T03:49:20.857Z,171.00
2023-08-12T03:50:25.637Z,171.00
2023-08-12T03:51:27.911Z,171.00
2023-08-12T03:52:31.011Z,171.00
2023-08-12T03:53:33.211Z,171.00
2023-08-12T03:54:36.323Z,171.00
2023-08-12T03:55:38.496Z,171.00
2023-08-12T03:56:41.673Z,172.00
2023-08-12T03:57:43.849Z,172.00
2023-08-12T03:58:47.020Z,172.00
2023-08-12T03:59:49.202Z,172.00
2023-08-12T04:00:53.784Z,172.00
2023-08-12T04:01:55.999Z,172.00
2023-08-12T04:02:59.411Z,172.00
2023-08-12T04:04:01.667Z,172.00
2023-08-12T04:05:05.024Z,172.00
2023-08-12T04:06:07.397Z,172.00
2023-08-12T04:07:11.067Z,172.00
2023-08-12T04:08:13.492Z,172.00
2023-08-12T04:09:16.599Z,172.00
2023-08-12T04:10:18.925Z,172.00
2023-08-12T04:11:22.227Z,171.50
2023-08-12T04:12:24.462Z,170.83
2023-08-12T04:13:27.686Z,170.00
2023-08-12T04:14:29.945Z,169.00
2023-08-12T04:15:33.125Z,169.00
2023-08-12T04:16:37.506Z,169.83
2023-08-12T04:17:42.508Z,170.00
2023-08-12T04:18:44.838Z,170.00
2023-08-12T04:19:47.999Z,169.67
2023-08-12T04:20:51.215Z,169.00
2023-08-12T04:21:54.413Z,169.00
2023-08-12T04:22:56.617Z,169.00
2023-08-12T04:23:59.841Z,169.00
2023-08-12T04:25:02.135Z,169.00
2023-08-12T04:26:05.280Z,169.00
2023-08-12T04:27:09.181Z,168.33
2023-08-12T04:28:12.579Z,168.00
2023-08-12T04:29:14.730Z,168.00
2023-08-12T04:30:18.681Z,168.00
2023-08-12T04:31:20.903Z,168.00
2023-08-12T04:32:25.551Z,168.00
2023-08-12T04:33:28.024Z,168.00
2023-08-12T04:34:31.226Z,168.00
2023-08-12T04:35:33.532Z,167.50
2023-08-12T04:36:36.788Z,166.67
2023-08-12T04:37:38.973Z,165.17
2023-08-12T04:38:42.148Z,163.67
2023-08-12T04:39:44.304Z,162.83
2023-08-12T04:40:48.139Z,161.67
2023-08-12T04:41:50.404Z,160.50
2023-08-12T04:42:53.493Z,160.00
2023-08-12T04:43:55.613Z,160.00
2023-08-12T04:44:58.784Z,160.00
2023-08-12T04:46:00.930Z,160.00
2023-08-12T04:47:04.316Z,160.00
2023-08-12T04:48:09.641Z,160.00
2023-08-12T04:49:13.008Z,160.00
2023-08-12T04:50:15.421Z,160.00
2023-08-12T04:51:18.574Z,160.00
2023-08-12T04:52:21.824Z,160.00
2023-08-12T04:53:25.052Z,160.00
2023-08-12T04:54:27.264Z,160.00
2023-08-12T04:55:29.471Z,160.00
2023-08-12T04:56:32.533Z,160.00
2023-08-12T04:57:34.783Z,160.00
2023-08-12T04:58:36.971Z,160.00
2023-08-12T04:59:40.219Z,160.00
2023-08-12T05:00:42.410Z,160.00
2023-08-12T05:01:58.566Z,160.00
2023-08-12T05:03:05.567Z,159.00
2023-08-12T05:04:10.118Z,158.33
2023-08-12T05:05:12.378Z,158.00
2023-08-12T05:06:15.574Z,158.00
2023-08-12T05:07:18.249Z,157.17
2023-08-12T05:08:21.497Z,157.83
2023-08-12T05:09:23.672Z,158.00
2023-08-12T05:10:26.885Z,158.00
2023-08-12T05:11:29.017Z,158.00
2023-08-12T05:12:32.314Z,158.00
2023-08-12T05:13:35.243Z,158.00
2023-08-12T05:14:38.494Z,158.00
2023-08-12T05:15:40.889Z,158.00
2023-08-12T05:16:44.156Z,158.00
2023-08-12T05:17:46.415Z,158.00
2023-08-12T05:18:49.610Z,158.00
2023-08-12T05:19:53.081Z,158.00
2023-08-12T05:20:56.238Z,158.00
2023-08-12T05:21:58.452Z,158.00
2023-08-12T05:23:01.611Z,158.00
2023-08-12T05:24:04.170Z,158.00
2023-08-12T05:25:08.175Z,158.00
2023-08-12T05:26:10.351Z,158.00
2023-08-12T05:27:13.515Z,158.00
2023-08-12T05:28:15.684Z,158.00
2023-08-12T05:29:18.894Z,158.00
2023-08-12T05:30:21.132Z,157.17
2023-08-12T05:31:24.392Z,157.17
2023-08-12T05:32:26.566Z,158.00
2023-08-12T05:33:29.793Z,158.00
2023-08-12T05:34:32.116Z,158.67
2023-08-12T05:35:36.962Z,159.67
2023-08-12T05:36:39.157Z,160.00
2023-08-12T05:37:42.273Z,160.00
2023-08-12T05:38:44.486Z,160.00
2023-08-12T05:39:47.625Z,160.00
2023-08-12T05:40:50.089Z,160.00
2023-08-12T05:41:53.528Z,159.67
2023-08-12T05:42:55.803Z,159.00
2023-08-12T05:43:58.963Z,159.00
2023-08-12T05:45:01.142Z,158.67
2023-08-12T05:46:04.314Z,158.00
2023-08-12T05:47:06.504Z,157.83
2023-08-12T05:48:10.093Z,157.00
2023-08-12T05:49:12.772Z,157.00
2023-08-12T05:50:16.183Z,157.00
2023-08-12T05:51:19.733Z,157.00
2023-08-12T05:52:22.941Z,157.00
2023-08-12T05:53:25.386Z,157.00
2023-08-12T05:54:28.566Z,156.33
2023-08-12T05:55:30.774Z,156.00
2023-08-12T05:56:33.922Z,156.00
2023-08-12T05:57:36.095Z,156.00
2023-08-12T05:58:39.280Z,156.00
2023-08-12T05:59:41.485Z,155.67
2023-08-12T06:00:46.462Z,155.00
2023-08-12T06:01:49.633Z,155.00
2023-08-12T06:02:52.841Z,154.17
2023-08-12T06:03:56.199Z,152.00
2023-08-12T06:04:58.545Z,150.33
2023-08-12T06:06:01.725Z,150.00
2023-08-12T06:07:05.399Z,151.50
2023-08-12T06:08:08.567Z,153.67
2023-08-12T06:09:10.783Z,154.33
2023-08-12T06:10:13.940Z,155.00
2023-08-12T06:11:16.130Z,156.17
2023-08-12T06:12:19.335Z,157.00
2023-08-12T06:13:21.533Z,157.00
2023-08-12T06:14:24.723Z,156.17
2023-08-12T06:15:27.068Z,155.00
2023-08-12T06:16:30.259Z,155.00
2023-08-12T06:17:32.495Z,155.00
2023-08-12T06:18:35.869Z,153.83
2023-08-12T06:19:38.051Z,148.50
2023-08-12T06:20:41.189Z,141.00
2023-08-12T06:21:43.326Z,136.00
2023-08-12T06:22:47.838Z,135.17
2023-08-12T06:23:49.984Z,137.17
2023-08-12T06:24:53.184Z,138.50
2023-08-12T06:25:55.394Z,139.83
2023-08-12T06:26:58.670Z,140.83
2023-08-12T06:28:00.982Z,141.83
2023-08-12T06:29:06.088Z,142.00
2023-08-12T06:30:10.074Z,142.00
2023-08-12T06:31:13.249Z,141.17
2023-08-12T06:32:15.825Z,136.83
2023-08-12T06:33:19.013Z,125.83
2023-08-12T06:34:21.179Z,124.33
2023-08-12T06:35:24.430Z,127.83
2023-08-12T06:36:26.598Z,127.83
2023-08-12T06:37:29.819Z,115.33
2023-08-12T06:38:33.443Z,105.50
2023-08-12T06:39:36.585Z,106.33
2023-08-12T06:40:39.394Z,111.33
2023-08-12T06:41:42.575Z,114.67
2023-08-12T06:42:44.724Z,112.33
2023-08-12T06:43:47.898Z,107.33
2023-08-12T06:44:55.620Z,106.00
2023-08-12T06:45:58.803Z,107.50
2023-08-12T06:47:01.041Z,109.83
2023-08-12T06:48:04.451Z,110.67
2023-08-12T06:49:06.706Z,104.83
2023-08-12T06:50:10.526Z,88.83
2023-08-12T06:51:12.802Z,82.50
2023-08-12T06:52:17.201Z,91.67
2023-08-12T06:53:19.324Z,100.83
2023-08-12T06:54:25.713Z,99.17
2023-08-12T06:55:27.929Z,83.67
2023-08-12T06:56:31.135Z,82.00
2023-08-12T06:57:33.303Z,89.00
2023-08-12T06:58:36.483Z,106.17
2023-08-12T06:59:38.822Z,125.50
2023-08-12T07:00:42.062Z,124.83
2023-08-12T07:01:44.360Z,102.50
2023-08-12T07:02:47.648Z,67.00
2023-08-12T07:03:49.818Z,59.17
2023-08-12T07:04:53.003Z,50.50
2023-08-12T07:05:55.510Z,40.83
2023-08-12T07:06:57.882Z,37.50
2023-08-12T07:08:01.086Z,37.50
2023-08-12T07:09:04.398Z,38.00
2023-08-12T07:10:09.865Z,35.83
2023-08-12T07:11:12.155Z,34.83
2023-08-12T07:12:15.297Z,31.83
2023-08-12T07:13:17.497Z,27.17
2023-08-12T07:14:20.693Z,24.00
2023-08-12T07:15:22.876Z,20.67
2023-08-12T07:16:25.998Z,20.00
2023-08-12T07:17:28.212Z,20.83
2023-08-12T07:18:32.113Z,25.00
2023-08-12T07:19:34.342Z,28.00
2023-08-12T07:20:37.424Z,29.00
2023-08-12T07:21:39.704Z,30.00
2023-08-12T07:22:42.885Z,30.00
2023-08-12T07:23:51.648Z,30.50
2023-08-12T07:25:05.476Z,28.83
2023-08-12T07:26:09.046Z,30.33
2023-08-12T07:27:12.296Z,81.50
2023-08-12T07:28:14.468Z,115.67
2023-08-12T07:29:17.660Z,90.17
2023-08-12T07:30:19.834Z,76.33
2023-08-12T07:31:23.037Z,87.17
2023-08-12T07:32:25.237Z,84.83
2023-08-12T07:33:28.412Z,69.50
2023-08-12T07:34:31.909Z,36.83
2023-08-12T07:35:35.468Z,21.00
2023-08-12T07:36:37.580Z,16.00
2023-08-12T07:37:40.798Z,12.50
2023-08-12T07:38:43.047Z,11.00
2023-08-12T07:39:46.582Z,11.00
2023-08-12T07:40:49.784Z,11.00
2023-08-12T07:41:54.247Z,11.50
2023-08-12T07:42:56.493Z,14.00
2023-08-12T07:43:59.584Z,14.00
2023-08-12T07:45:01.823Z,13.50
2023-08-12T07:46:10.138Z,12.50
2023-08-12T07:47:12.866Z,10.83
2023-08-12T07:48:15.959Z,9.17
2023-08-12T07:49:18.224Z,9.00
2023-08-12T07:50:21.619Z,9.00
2023-08-12T07:51:23.792Z,8.67
2023-08-12T07:52:26.983Z,7.67
2023-08-12T07:53:29.167Z,6.50
2023-08-12T07:54:32.276Z,5.83
2023-08-12T07:55:35.921Z,5.00
2023-08-12T07:56:39.070Z,5.00
2023-08-12T07:57:42.687Z,5.00
2023-08-12T07:58:46.887Z,5.00
2023-08-12T07:59:49.065Z,5.00
2023-08-12T08:00:54.770Z,5.00
2023-08-12T08:01:56.996Z,5.00
2023-08-12T08:03:00.218Z,5.00
2023-08-12T08:04:02.425Z,5.00
2023-08-12T08:05:06.156Z,5.00
2023-08-12T08:06:08.327Z,5.00
2023-08-12T08:07:13.189Z,5.00
2023-08-12T08:08:15.883Z,5.00
2023-08-12T08:09:19.104Z,5.00
2023-08-12T08:10:21.277Z,5.17
2023-08-12T08:11:26.373Z,7.83
2023-08-12T08:12:28.540Z,9.00
2023-08-12T08:13:33.104Z,9.00
2023-08-12T08:14:35.208Z,9.00
2023-08-12T08:15:38.709Z,9.00
2023-08-12T08:16:42.981Z,8.67
2023-08-12T08:17:46.347Z,8.00
2023-08-12T08:18:48.901Z,8.00
2023-08-12T08:19:52.063Z,7.17
2023-08-12T08:20:54.339Z,7.00
2023-08-12T08:21:57.561Z,6.50
2023-08-12T08:22:59.750Z,6.00
2023-08-12T08:24:02.872Z,6.00
2023-08-12T08:25:05.536Z,5.17
2023-08-12T08:26:09.330Z,5.50
2023-08-12T08:27:11.474Z,6.00
2023-08-12T08:28:14.693Z,6.00
2023-08-12T08:29:18.279Z,6.00
2023-08-12T08:30:21.506Z,6.00
2023-08-12T08:31:23.678Z,5.33
2023-08-12T08:32:27.092Z,5.00
2023-08-12T08:33:29.300Z,5.00
2023-08-12T08:34:32.456Z,5.00
2023-08-12T08:35:34.769Z,5.00
2023-08-12T08:36:38.249Z,5.00
2023-08-12T08:37:41.538Z,5.00
2023-08-12T08:38:44.690Z,5.33
2023-08-12T08:39:46.856Z,9.67
2023-08-12T08:40:51.440Z,12.00
2023-08-12T08:41:55.206Z,11.33
2023-08-12T08:43:05.828Z,10.83
2023-08-12T08:44:09.532Z,9.50
2023-08-12T08:45:15.782Z,8.50
2023-08-12T08:46:18.063Z,8.17
2023-08-12T08:47:21.348Z,19.67
2023-08-12T08:48:24.582Z,20.50
2023-08-12T08:49:27.036Z,18.67
2023-08-12T08:50:30.351Z,17.33
2023-08-12T08:51:33.077Z,15.50
2023-08-12T08:52:37.308Z,14.17
2023-08-12T08:53:40.374Z,14.00
2023-08-12T08:54:44.278Z,13.50
2023-08-12T08:55:46.958Z,13.00
2023-08-12T08:57:00.431Z,12.00
2023-08-12T08:58:09.447Z,11.50
2023-08-12T08:59:12.795Z,10.33
2023-08-12T09:00:18.110Z,9.50
2023-08-12T09:01:23.477Z,8.67
2023-08-12T09:02:26.521Z,8.00
2023-08-12T09:03:30.154Z,7.17
2023-08-12T09:04:33.072Z,7.00
2023-08-12T09:05:37.433Z,7.00
2023-08-12T09:06:40.953Z,6.00
2023-08-12T09:07:45.118Z,6.00
2023-08-12T09:08:49.805Z,6.00
2023-08-12T09:09:55.059Z,6.67
2023-08-12T09:10:58.872Z,31.17
2023-08-12T09:12:02.108Z,73.33
2023-08-12T09:13:04.645Z,51.17
2023-08-12T09:14:08.423Z,35.33
2023-08-12T09:15:11.276Z,28.50
2023-08-12T09:16:15.843Z,20.50
2023-08-12T09:17:18.033Z,15.50
2023-08-12T09:18:25.164Z,15.67
2023-08-12T09:19:27.385Z,16.00
2023-08-12T09:20:30.585Z,15.67
2023-08-12T09:21:32.810Z,16.00
2023-08-12T09:22:35.995Z,15.33
2023-08-12T09:23:38.855Z,18.00
2023-08-12T09:24:42.014Z,19.67
2023-08-12T09:25:45.216Z,19.33
2023-08-12T09:26:52.604Z,18.00
2023-08-12T09:27:57.408Z,16.67
2023-08-12T09:29:00.929Z,14.83
2023-08-12T09:30:05.921Z,13.00
2023-08-12T09:31:09.162Z,12.00
2023-08-12T09:32:15.176Z,11.17
2023-08-12T09:33:17.887Z,10.67
2023-08-12T09:34:20.032Z,10.00
2023-08-12T09:35:23.301Z,10.00
2023-08-12T09:36:25.489Z,10.00
2023-08-12T09:37:28.595Z,10.00
2023-08-12T09:38:31.364Z,10.00
2023-08-12T09:39:34.663Z,10.00
2023-08-12T09:40:37.223Z,10.00
2023-08-12T09:41:41.110Z,10.00
2023-08-12T09:42:46.869Z,9.17
2023-08-12T09:43:49.999Z,9.00
2023-08-12T09:44:52.498Z,9.00
2023-08-12T09:45:58.323Z,9.00
2023-08-12T09:47:00.600Z,9.00
2023-08-12T09:48:06.118Z,9.00
2023-08-12T09:49:08.508Z,8.33
2023-08-12T09:50:11.726Z,8.00
2023-08-12T09:51:14.203Z,8.00
2023-08-12T09:52:17.472Z,8.00
2023-08-12T09:53:19.689Z,8.00
2023-08-12T09:54:25.763Z,8.00
2023-08-12T09:55:28.029Z,8.00
2023-08-12T09:56:36.865Z,8.00
2023-08-12T09:57:43.717Z,8.00
2023-08-12T09:58:50.112Z,8.00
2023-08-12T09:59:54.855Z,8.00
2023-08-12T10:00:58.491Z,8.00
2023-08-12T10:02:01.043Z,8.17
2023-08-12T10:03:06.744Z,10.33
2023-08-12T10:04:13.132Z,11.33
2023-08-12T10:05:21.932Z,11.00
2023-08-12T10:06:24.442Z,11.00
2023-08-12T10:07:28.277Z,11.00
2023-08-12T10:08:30.965Z,11.00
2023-08-12T10:09:35.341Z,11.00
2023-08-12T10:10:37.753Z,11.00
2023-08-12T10:11:41.727Z,11.67
2023-08-12T10:12:43.945Z,13.83
2023-08-12T10:13:47.514Z,13.17
2023-08-12T10:14:49.663Z,12.33
2023-08-12T10:15:51.914Z,11.33
2023-08-12T10:17:04.439Z,10.50
2023-08-12T10:18:12.051Z,9.67
2023-08-12T10:19:19.279Z,9.00
2023-08-12T10:20:23.657Z,9.00
2023-08-12T10:21:26.973Z,9.83
2023-08-12T10:22:30.918Z,17.83
2023-08-12T10:23:34.739Z,18.33
2023-08-12T10:24:37.882Z,17.33
2023-08-12T10:25:43.999Z,16.50
2023-08-12T10:26:47.133Z,15.17
2023-08-12T10:27:50.630Z,15.00
2023-08-12T10:28:53.270Z,14.83
2023-08-12T10:29:57.452Z,14.33
2023-08-12T10:31:00.679Z,29.17
2023-08-12T10:32:03.558Z,38.33
2023-08-12T10:33:07.464Z,50.67
2023-08-12T10:34:19.590Z,44.83
2023-08-12T10:35:23.102Z,39.17
2023-08-12T10:36:27.336Z,36.67
2023-08-12T10:37:34.447Z,33.33
2023-08-12T10:38:36.781Z,27.50
2023-08-12T10:39:40.324Z,26.00
2023-08-12T10:40:42.551Z,23.00
2023-08-12T10:41:53.212Z,20.83
2023-08-12T10:42:55.332Z,18.83
2023-08-12T10:44:05.148Z,17.17
2023-08-12T10:45:07.996Z,14.83
2023-08-12T10:46:23.894Z,14.00
2023-08-12T10:47:26.186Z,14.00
2023-08-12T10:48:30.009Z,14.67
2023-08-12T10:49:39.754Z,14.67
2023-08-12T10:50:46.358Z,15.00
2023-08-12T10:51:50.067Z,15.00
2023-08-12T10:52:54.732Z,14.33
2023-08-12T10:54:12.237Z,14.00
2023-08-12T10:55:19.777Z,13.83
2023-08-12T10:56:21.925Z,13.00
2023-08-12T10:57:39.268Z,13.00
2023-08-12T10:58:46.504Z,12.50
2023-08-12T10:59:51.559Z,12.00
2023-08-12T11:00:55.464Z,12.00
2023-08-12T11:02:07.954Z,12.00
2023-08-12T11:03:10.214Z,12.33
2023-08-12T11:04:20.298Z,13.00
2023-08-12T11:05:24.626Z,13.00
2023-08-12T11:06:30.062Z,13.67
2023-08-12T11:07:39.717Z,14.00
2023-08-12T11:08:48.622Z,14.83
2023-08-12T11:09:54.356Z,15.83
2023-08-12T11:10:59.247Z,16.00
2023-08-12T11:12:01.825Z,15.33
2023-08-12T11:13:05.891Z,24.00
2023-08-12T11:14:15.181Z,31.67
2023-08-12T11:15:17.541Z,45.17
2023-08-12T11:16:20.682Z,41.83
2023-08-12T11:17:31.656Z,36.33
2023-08-12T11:18:34.946Z,33.00
2023-08-12T11:19:37.334Z,27.50
2023-08-12T11:20:42.776Z,24.17
2023-08-12T11:21:45.330Z,35.00
2023-08-12T11:22:48.968Z,36.83
2023-08-12T11:23:51.765Z,35.50
2023-08-12T11:24:55.583Z,34.00
2023-08-12T11:25:59.329Z,33.17
2023-08-12T11:27:03.450Z,31.83
2023-08-12T11:28:06.275Z,29.83
2023-08-12T11:29:11.508Z,29.00
2023-08-12T11:30:16.509Z,27.50
2023-08-12T11:31:20.847Z,22.83
2023-08-12T11:32:23.070Z,19.00
2023-08-12T11:33:26.294Z,18.83
2023-08-12T11:34:28.789Z,20.00
2023-08-12T11:35:32.889Z,19.00
2023-08-12T11:36:36.582Z,18.00
2023-08-12T11:37:39.247Z,17.17
2023-08-12T11:38:42.449Z,17.00
2023-08-12T11:39:44.980Z,17.17
2023-08-12T11:40:48.090Z,27.17
2023-08-12T11:41:51.599Z,37.50
2023-08-12T11:42:55.928Z,37.50
2023-08-12T11:43:58.349Z,35.33
2023-08-12T11:45:00.618Z,33.67
2023-08-12T11:46:03.782Z,32.17
2023-08-12T11:47:06.348Z,30.33
2023-08-12T11:48:09.713Z,29.83
2023-08-12T11:49:11.884Z,29.00
2023-08-12T11:50:15.370Z,30.67
2023-08-12T11:51:17.809Z,51.67
2023-08-12T11:52:22.690Z,53.83
2023-08-12T11:53:24.993Z,46.83
2023-08-12T11:54:29.935Z,44.00
2023-08-12T11:55:32.689Z,40.67
2023-08-12T11:56:35.981Z,36.17
2023-08-12T11:57:40.655Z,32.33
2023-08-12T11:58:53.097Z,31.50
2023-08-12T12:00:00.432Z,31.00
2023-08-12T12:01:03.608Z,30.33
2023-08-12T12:02:06.174Z,29.17
2023-08-12T12:03:08.536Z,28.00
2023-08-12T12:04:12.805Z,28.00
2023-08-12T12:05:15.265Z,27.00
2023-08-12T12:06:18.568Z,25.67
2023-08-12T12:07:23.398Z,24.00
2023-08-12T12:08:26.916Z,22.00
2023-08-12T12:09:30.583Z,21.00
2023-08-12T12:10:35.893Z,21.00
2023-08-12T12:11:38.727Z,22.33
2023-08-12T12:12:40.905Z,25.17
2023-08-12T12:13:44.081Z,26.00
2023-08-12T12:14:48.475Z,26.67
2023-08-12T12:15:51.692Z,29.00
2023-08-12T12:16:53.959Z,30.00
2023-08-12T12:17:57.182Z,30.00
2023-08-12T12:18:59.573Z,30.83
2023-08-12T12:20:03.827Z,30.50
2023-08-12T12:21:06.077Z,29.83
2023-08-12T12:22:09.512Z,29.00
2023-08-12T12:23:13.036Z,28.67
2023-08-12T12:24:15.376Z,30.00
2023-08-12T12:25:20.289Z,31.00
2023-08-12T12:26:23.929Z,30.50
2023-08-12T12:27:27.360Z,30.00
2023-08-12T12:28:29.688Z,30.00
2023-08-12T12:29:32.856Z,29.83
2023-08-12T12:30:35.080Z,29.17
2023-08-12T12:31:38.665Z,31.00
2023-08-12T12:32:40.912Z,32.83
2023-08-12T12:33:43.093Z,33.00
2023-08-12T12:34:46.262Z,32.33
2023-08-12T12:35:57.578Z,32.00
2023-08-12T12:37:03.276Z,32.17
2023-08-12T12:38:05.409Z,33.00
2023-08-12T12:39:09.975Z,33.00
2023-08-12T12:40:12.947Z,32.00
2023-08-12T12:41:15.622Z,31.50
2023-08-12T12:42:18.785Z,30.50
2023-08-12T12:43:21.145Z,29.33
2023-08-12T12:44:24.311Z,29.00
2023-08-12T12:45:26.596Z,30.50
2023-08-12T12:46:30.098Z,30.83
2023-08-12T12:47:32.430Z,28.83
2023-08-12T12:48:35.661Z,27.67
2023-08-12T12:49:37.801Z,31.33
2023-08-12T12:50:40.954Z,61.50
2023-08-12T12:51:43.042Z,53.50
2023-08-12T12:52:46.255Z,47.67
2023-08-12T12:53:48.511Z,40.67
2023-08-12T12:54:53.308Z,31.67
2023-08-12T12:55:57.353Z,26.67
2023-08-12T12:57:00.958Z,25.33
2023-08-12T12:58:03.166Z,25.83
2023-08-12T12:59:06.521Z,29.33
2023-08-12T13:00:12.840Z,31.00
2023-08-12T13:01:16.409Z,31.00
2023-08-12T13:02:18.575Z,31.00
2023-08-12T13:03:22.141Z,31.00
2023-08-12T13:04:24.407Z,31.00
2023-08-12T13:05:27.597Z,31.00
2023-08-12T13:06:29.816Z,35.83
2023-08-12T13:07:32.999Z,38.00
2023-08-12T13:08:35.196Z,38.00
2023-08-12T13:09:39.693Z,37.83
2023-08-12T13:10:44.168Z,37.00
2023-08-12T13:11:47.272Z,37.00
2023-08-12T13:12:49.486Z,37.00
2023-08-12T13:13:52.577Z,37.00
2023-08-12T13:14:54.804Z,36.33
2023-08-12T13:15:58.021Z,35.67
2023-08-12T13:17:00.178Z,34.50
2023-08-12T13:18:04.135Z,32.00
2023-08-12T13:19:06.424Z,29.67
2023-08-12T13:20:11.519Z,28.00
2023-08-12T13:21:13.761Z,27.50
2023-08-12T13:22:16.932Z,27.00
2023-08-12T13:23:19.121Z,32.17
2023-08-12T13:24:22.387Z,56.17
2023-08-12T13:25:24.533Z,57.67
2023-08-12T13:26:29.233Z,50.17
2023-08-12T13:27:31.375Z,47.17
2023-08-12T13:28:35.236Z,41.50